sensor_id;sensor_type;location;lat;lon;timestamp;P1;durP1;ratioP1;P2;durP2;ratioP2
20559;SDS011;10438;51.454;6.718;2023-06-26T00:01:49;9.13;;;6.22;;
20559;SDS011;10438;51.454;6.718;2023-06-26T00:04:15;8.63;;;6.30;;
20559;SDS011;10438;51.454;6.718;2023-06-26T00:06:41;14.68;;;6.03;;
20559;SDS011;10438;51.454;6.718;2023-06-26T00:09:06;9.13;;;5.72;;
20559;SDS011;10438;51.454;6.718;2023-06-26T00:11:32;11.30;;;6.00;;
20559;SDS011;10438;51.454;6.718;2023-06-26T00:13:58;9.82;;;6.65;;
20559;SDS011;10438;51.454;6.718;2023-06-26T00:16:25;9.65;;;6.50;;
20559;SDS011;10438;51.454;6.718;2023-06-26T00:18:51;12.45;;;6.70;;
20559;SDS011;10438;51.454;6.718;2023-06-26T00:21:17;10.68;;;6.75;;
20559;SDS011;10438;51.454;6.718;2023-06-26T00:23:43;14.57;;;6.43;;
20559;SDS011;10438;51.454;6.718;2023-06-26T00:26:09;8.52;;;6.60;;
20559;SDS011;10438;51.454;6.718;2023-06-26T00:28:35;13.30;;;6.65;;
20559;SDS011;10438;51.454;6.718;2023-06-26T00:31:00;10.23;;;6.50;;
20559;SDS011;10438;51.454;6.718;2023-06-26T00:33:26;8.45;;;6.05;;
20559;SDS011;10438;51.454;6.718;2023-06-26T00:35:51;9.88;;;6.20;;
20559;SDS011;10438;51.454;6.718;2023-06-26T00:38:17;12.30;;;6.70;;
20559;SDS011;10438;51.454;6.718;2023-06-26T00:40:42;9.45;;;6.93;;
20559;SDS011;10438;51.454;6.718;2023-06-26T00:43:08;13.00;;;6.78;;
20559;SDS011;10438;51.454;6.718;2023-06-26T00:45:34;8.85;;;6.60;;
20559;SDS011;10438;51.454;6.718;2023-06-26T00:48:00;11.93;;;6.60;;
20559;SDS011;10438;51.454;6.718;2023-06-26T00:50:26;8.98;;;6.60;;
20559;SDS011;10438;51.454;6.718;2023-06-26T00:52:52;10.40;;;6.40;;
20559;SDS011;10438;51.454;6.718;2023-06-26T00:55:19;9.57;;;6.55;;
20559;SDS011;10438;51.454;6.718;2023-06-26T00:57:45;10.75;;;6.35;;
20559;SDS011;10438;51.454;6.718;2023-06-26T01:00:11;14.02;;;6.55;;
20559;SDS011;10438;51.454;6.718;2023-06-26T01:02:38;9.10;;;6.22;;
20559;SDS011;10438;51.454;6.718;2023-06-26T01:05:04;13.13;;;6.93;;
20559;SDS011;10438;51.454;6.718;2023-06-26T01:07:32;8.18;;;6.55;;
20559;SDS011;10438;51.454;6.718;2023-06-26T01:10:01;10.75;;;6.97;;
20559;SDS011;10438;51.454;6.718;2023-06-26T01:12:31;9.32;;;6.30;;
20559;SDS011;10438;51.454;6.718;2023-06-26T01:14:58;9.60;;;6.30;;
20559;SDS011;10438;51.454;6.718;2023-06-26T01:17:24;9.02;;;6.57;;
20559;SDS011;10438;51.454;6.718;2023-06-26T01:19:52;11.23;;;6.45;;
20559;SDS011;10438;51.454;6.718;2023-06-26T01:22:23;8.13;;;6.28;;
20559;SDS011;10438;51.454;6.718;2023-06-26T01:25:12;12.95;;;6.97;;
20559;SDS011;10438;51.454;6.718;2023-06-26T01:27:53;10.35;;;7.03;;
20559;SDS011;10438;51.454;6.718;2023-06-26T01:30:20;8.85;;;6.90;;
20559;SDS011;10438;51.454;6.718;2023-06-26T01:32:46;10.15;;;7.47;;
20559;SDS011;10438;51.454;6.718;2023-06-26T01:35:12;9.65;;;6.55;;
20559;SDS011;10438;51.454;6.718;2023-06-26T01:37:39;9.55;;;6.55;;
20559;SDS011;10438;51.454;6.718;2023-06-26T01:40:05;9.48;;;6.45;;
20559;SDS011;10438;51.454;6.718;2023-06-26T01:42:31;10.45;;;6.70;;
20559;SDS011;10438;51.454;6.718;2023-06-26T01:44:57;13.25;;;6.85;;
20559;SDS011;10438;51.454;6.718;2023-06-26T01:47:30;12.63;;;6.90;;
20559;SDS011;10438;51.454;6.718;2023-06-26T01:50:00;10.00;;;7.50;;
20559;SDS011;10438;51.454;6.718;2023-06-26T01:52:33;8.98;;;6.47;;
20559;SDS011;10438;51.454;6.718;2023-06-26T01:55:17;11.45;;;7.22;;
20559;SDS011;10438;51.454;6.718;2023-06-26T01:57:54;11.63;;;7.22;;
20559;SDS011;10438;51.454;6.718;2023-06-26T02:00:22;10.27;;;7.10;;
20559;SDS011;10438;51.454;6.718;2023-06-26T02:02:49;15.98;;;8.07;;
20559;SDS011;10438;51.454;6.718;2023-06-26T02:05:14;13.40;;;7.70;;
20559;SDS011;10438;51.454;6.718;2023-06-26T02:07:40;11.13;;;6.97;;
20559;SDS011;10438;51.454;6.718;2023-06-26T02:10:06;12.25;;;6.93;;
20559;SDS011;10438;51.454;6.718;2023-06-26T02:12:32;10.85;;;7.30;;
20559;SDS011;10438;51.454;6.718;2023-06-26T02:14:57;11.63;;;6.97;;
20559;SDS011;10438;51.454;6.718;2023-06-26T02:17:23;10.73;;;7.13;;
20559;SDS011;10438;51.454;6.718;2023-06-26T02:19:49;14.98;;;7.28;;
20559;SDS011;10438;51.454;6.718;2023-06-26T02:22:15;10.57;;;7.20;;
20559;SDS011;10438;51.454;6.718;2023-06-26T02:24:41;10.18;;;7.28;;
20559;SDS011;10438;51.454;6.718;2023-06-26T02:27:08;10.15;;;7.45;;
20559;SDS011;10438;51.454;6.718;2023-06-26T02:29:34;10.77;;;7.35;;
20559;SDS011;10438;51.454;6.718;2023-06-26T02:31:59;16.77;;;7.57;;
20559;SDS011;10438;51.454;6.718;2023-06-26T02:34:25;13.38;;;7.53;;
20559;SDS011;10438;51.454;6.718;2023-06-26T02:36:50;12.80;;;8.00;;
20559;SDS011;10438;51.454;6.718;2023-06-26T02:39:19;11.82;;;8.07;;
20559;SDS011;10438;51.454;6.718;2023-06-26T02:41:45;10.00;;;7.43;;
20559;SDS011;10438;51.454;6.718;2023-06-26T02:44:10;11.85;;;7.10;;
20559;SDS011;10438;51.454;6.718;2023-06-26T02:46:37;11.45;;;7.35;;
20559;SDS011;10438;51.454;6.718;2023-06-26T02:49:03;13.43;;;7.90;;
20559;SDS011;10438;51.454;6.718;2023-06-26T02:51:28;13.55;;;7.20;;
20559;SDS011;10438;51.454;6.718;2023-06-26T02:53:54;11.05;;;7.03;;
20559;SDS011;10438;51.454;6.718;2023-06-26T02:56:19;12.85;;;7.22;;
20559;SDS011;10438;51.454;6.718;2023-06-26T02:58:45;14.15;;;7.25;;
20559;SDS011;10438;51.454;6.718;2023-06-26T03:01:10;20.45;;;7.45;;
20559;SDS011;10438;51.454;6.718;2023-06-26T03:03:36;13.80;;;8.48;;
20559;SDS011;10438;51.454;6.718;2023-06-26T03:06:05;9.55;;;6.30;;
20559;SDS011;10438;51.454;6.718;2023-06-26T03:08:32;11.57;;;6.43;;
20559;SDS011;10438;51.454;6.718;2023-06-26T03:11:01;12.45;;;7.00;;
20559;SDS011;10438;51.454;6.718;2023-06-26T03:13:27;10.20;;;7.57;;
20559;SDS011;10438;51.454;6.718;2023-06-26T03:15:52;14.18;;;6.72;;
20559;SDS011;10438;51.454;6.718;2023-06-26T03:18:18;11.18;;;6.75;;
20559;SDS011;10438;51.454;6.718;2023-06-26T03:20:43;12.52;;;6.82;;
20559;SDS011;10438;51.454;6.718;2023-06-26T03:23:09;10.73;;;6.65;;
20559;SDS011;10438;51.454;6.718;2023-06-26T03:25:34;13.25;;;6.55;;
20559;SDS011;10438;51.454;6.718;2023-06-26T03:28:00;9.68;;;6.00;;
20559;SDS011;10438;51.454;6.718;2023-06-26T03:30:25;8.77;;;6.45;;
20559;SDS011;10438;51.454;6.718;2023-06-26T03:32:51;12.18;;;6.47;;
20559;SDS011;10438;51.454;6.718;2023-06-26T03:35:16;9.82;;;6.85;;
20559;SDS011;10438;51.454;6.718;2023-06-26T03:37:42;11.90;;;6.68;;
20559;SDS011;10438;51.454;6.718;2023-06-26T03:40:08;8.18;;;6.00;;
20559;SDS011;10438;51.454;6.718;2023-06-26T03:42:34;16.92;;;6.95;;
20559;SDS011;10438;51.454;6.718;2023-06-26T03:45:00;12.27;;;6.70;;
20559;SDS011;10438;51.454;6.718;2023-06-26T03:47:25;11.45;;;7.30;;
20559;SDS011;10438;51.454;6.718;2023-06-26T03:49:51;10.35;;;7.40;;
20559;SDS011;10438;51.454;6.718;2023-06-26T03:52:16;10.23;;;6.97;;
20559;SDS011;10438;51.454;6.718;2023-06-26T03:54:42;13.25;;;7.10;;
20559;SDS011;10438;51.454;6.718;2023-06-26T03:57:08;13.75;;;6.60;;
20559;SDS011;10438;51.454;6.718;2023-06-26T03:59:33;10.30;;;6.53;;
20559;SDS011;10438;51.454;6.718;2023-06-26T04:01:59;14.57;;;7.03;;
20559;SDS011;10438;51.454;6.718;2023-06-26T04:04:24;9.18;;;6.03;;
20559;SDS011;10438;51.454;6.718;2023-06-26T04:06:50;11.48;;;6.00;;
20559;SDS011;10438;51.454;6.718;2023-06-26T04:09:16;8.88;;;5.88;;
20559;SDS011;10438;51.454;6.718;2023-06-26T04:11:41;10.52;;;6.50;;
20559;SDS011;10438;51.454;6.718;2023-06-26T04:14:07;10.75;;;5.63;;
20559;SDS011;10438;51.454;6.718;2023-06-26T04:16:33;7.72;;;4.97;;
20559;SDS011;10438;51.454;6.718;2023-06-26T04:18:58;10.05;;;5.53;;
20559;SDS011;10438;51.454;6.718;2023-06-26T04:21:24;10.93;;;5.18;;
20559;SDS011;10438;51.454;6.718;2023-06-26T04:23:49;7.40;;;4.80;;
20559;SDS011;10438;51.454;6.718;2023-06-26T04:26:16;9.27;;;5.07;;
20559;SDS011;10438;51.454;6.718;2023-06-26T04:28:42;10.07;;;5.20;;
20559;SDS011;10438;51.454;6.718;2023-06-26T04:31:08;8.35;;;5.10;;
20559;SDS011;10438;51.454;6.718;2023-06-26T04:33:34;8.70;;;4.85;;
20559;SDS011;10438;51.454;6.718;2023-06-26T04:36:03;11.85;;;5.47;;
20559;SDS011;10438;51.454;6.718;2023-06-26T04:38:30;9.45;;;4.93;;
20559;SDS011;10438;51.454;6.718;2023-06-26T04:40:56;9.57;;;4.53;;
20559;SDS011;10438;51.454;6.718;2023-06-26T04:43:22;7.90;;;4.73;;
20559;SDS011;10438;51.454;6.718;2023-06-26T04:45:47;12.05;;;4.95;;
20559;SDS011;10438;51.454;6.718;2023-06-26T04:48:13;10.35;;;4.82;;
20559;SDS011;10438;51.454;6.718;2023-06-26T04:50:39;10.18;;;4.95;;
20559;SDS011;10438;51.454;6.718;2023-06-26T04:53:05;11.05;;;5.45;;
20559;SDS011;10438;51.454;6.718;2023-06-26T04:55:30;8.80;;;5.18;;
20559;SDS011;10438;51.454;6.718;2023-06-26T04:57:56;9.65;;;6.20;;
20559;SDS011;10438;51.454;6.718;2023-06-26T05:00:21;8.52;;;5.85;;
20559;SDS011;10438;51.454;6.718;2023-06-26T05:02:47;8.70;;;5.57;;
20559;SDS011;10438;51.454;6.718;2023-06-26T05:05:13;9.18;;;5.45;;
20559;SDS011;10438;51.454;6.718;2023-06-26T05:07:40;11.45;;;6.00;;
20559;SDS011;10438;51.454;6.718;2023-06-26T05:10:06;10.48;;;7.05;;
20559;SDS011;10438;51.454;6.718;2023-06-26T05:12:33;10.27;;;5.28;;
20559;SDS011;10438;51.454;6.718;2023-06-26T05:14:58;11.30;;;5.68;;
20559;SDS011;10438;51.454;6.718;2023-06-26T05:17:24;9.82;;;5.50;;
20559;SDS011;10438;51.454;6.718;2023-06-26T05:19:49;10.73;;;5.72;;
20559;SDS011;10438;51.454;6.718;2023-06-26T05:22:15;13.27;;;5.38;;
20559;SDS011;10438;51.454;6.718;2023-06-26T05:24:42;8.85;;;5.53;;
20559;SDS011;10438;51.454;6.718;2023-06-26T05:27:12;10.15;;;5.60;;
20559;SDS011;10438;51.454;6.718;2023-06-26T05:29:46;12.05;;;5.70;;
20559;SDS011;10438;51.454;6.718;2023-06-26T05:32:12;11.82;;;5.88;;
20559;SDS011;10438;51.454;6.718;2023-06-26T05:34:42;8.95;;;5.75;;
20559;SDS011;10438;51.454;6.718;2023-06-26T05:37:10;10.32;;;4.90;;
20559;SDS011;10438;51.454;6.718;2023-06-26T05:39:43;12.65;;;5.70;;
20559;SDS011;10438;51.454;6.718;2023-06-26T05:42:09;12.48;;;5.18;;
20559;SDS011;10438;51.454;6.718;2023-06-26T05:44:35;11.48;;;4.82;;
20559;SDS011;10438;51.454;6.718;2023-06-26T05:47:01;11.45;;;4.82;;
20559;SDS011;10438;51.454;6.718;2023-06-26T05:49:26;12.02;;;4.80;;
20559;SDS011;10438;51.454;6.718;2023-06-26T05:51:52;13.68;;;5.00;;
20559;SDS011;10438;51.454;6.718;2023-06-26T05:54:18;14.27;;;4.88;;
20559;SDS011;10438;51.454;6.718;2023-06-26T05:56:43;13.27;;;5.32;;
20559;SDS011;10438;51.454;6.718;2023-06-26T05:59:10;9.48;;;4.70;;
20559;SDS011;10438;51.454;6.718;2023-06-26T06:01:36;15.85;;;5.75;;
20559;SDS011;10438;51.454;6.718;2023-06-26T06:04:02;12.43;;;5.18;;
20559;SDS011;10438;51.454;6.718;2023-06-26T06:06:27;9.57;;;4.88;;
20559;SDS011;10438;51.454;6.718;2023-06-26T06:08:53;10.10;;;4.82;;
20559;SDS011;10438;51.454;6.718;2023-06-26T06:11:18;11.07;;;5.20;;
20559;SDS011;10438;51.454;6.718;2023-06-26T06:13:44;9.57;;;5.15;;
20559;SDS011;10438;51.454;6.718;2023-06-26T06:16:09;15.48;;;5.30;;
20559;SDS011;10438;51.454;6.718;2023-06-26T06:18:35;11.70;;;5.43;;
20559;SDS011;10438;51.454;6.718;2023-06-26T06:21:00;14.23;;;5.60;;
20559;SDS011;10438;51.454;6.718;2023-06-26T06:23:27;16.45;;;5.60;;
20559;SDS011;10438;51.454;6.718;2023-06-26T06:25:52;13.07;;;5.35;;
20559;SDS011;10438;51.454;6.718;2023-06-26T06:28:18;17.85;;;5.55;;
20559;SDS011;10438;51.454;6.718;2023-06-26T06:30:43;15.80;;;5.53;;
20559;SDS011;10438;51.454;6.718;2023-06-26T06:33:09;20.80;;;5.90;;
20559;SDS011;10438;51.454;6.718;2023-06-26T06:35:34;16.70;;;6.00;;
20559;SDS011;10438;51.454;6.718;2023-06-26T06:38:00;17.03;;;5.60;;
20559;SDS011;10438;51.454;6.718;2023-06-26T06:40:25;15.60;;;5.28;;
20559;SDS011;10438;51.454;6.718;2023-06-26T06:42:51;16.95;;;5.72;;
20559;SDS011;10438;51.454;6.718;2023-06-26T06:45:17;14.40;;;5.72;;
20559;SDS011;10438;51.454;6.718;2023-06-26T06:47:42;10.85;;;5.10;;
20559;SDS011;10438;51.454;6.718;2023-06-26T06:50:08;13.85;;;5.40;;
20559;SDS011;10438;51.454;6.718;2023-06-26T06:52:35;18.02;;;5.43;;
20559;SDS011;10438;51.454;6.718;2023-06-26T06:55:05;16.00;;;5.32;;
20559;SDS011;10438;51.454;6.718;2023-06-26T06:57:35;13.95;;;5.18;;
20559;SDS011;10438;51.454;6.718;2023-06-26T07:00:06;18.45;;;5.72;;
20559;SDS011;10438;51.454;6.718;2023-06-26T07:02:34;13.32;;;5.38;;
20559;SDS011;10438;51.454;6.718;2023-06-26T07:05:00;13.13;;;4.88;;
20559;SDS011;10438;51.454;6.718;2023-06-26T07:07:28;14.30;;;6.13;;
20559;SDS011;10438;51.454;6.718;2023-06-26T07:09:55;12.15;;;5.13;;
20559;SDS011;10438;51.454;6.718;2023-06-26T07:12:21;13.65;;;5.30;;
20559;SDS011;10438;51.454;6.718;2023-06-26T07:14:47;13.43;;;5.72;;
20559;SDS011;10438;51.454;6.718;2023-06-26T07:17:12;15.40;;;5.43;;
20559;SDS011;10438;51.454;6.718;2023-06-26T07:19:38;16.35;;;6.13;;
20559;SDS011;10438;51.454;6.718;2023-06-26T07:22:03;18.38;;;6.20;;
20559;SDS011;10438;51.454;6.718;2023-06-26T07:24:29;17.25;;;6.53;;
20559;SDS011;10438;51.454;6.718;2023-06-26T07:26:54;12.93;;;5.32;;
20559;SDS011;10438;51.454;6.718;2023-06-26T07:29:20;17.55;;;6.50;;
20559;SDS011;10438;51.454;6.718;2023-06-26T07:31:45;17.65;;;6.30;;
20559;SDS011;10438;51.454;6.718;2023-06-26T07:34:12;14.20;;;6.35;;
20559;SDS011;10438;51.454;6.718;2023-06-26T07:36:38;15.50;;;6.10;;
20559;SDS011;10438;51.454;6.718;2023-06-26T07:39:04;16.90;;;6.10;;
20559;SDS011;10438;51.454;6.718;2023-06-26T07:41:29;26.00;;;6.40;;
20559;SDS011;10438;51.454;6.718;2023-06-26T07:43:56;19.08;;;5.80;;
20559;SDS011;10438;51.454;6.718;2023-06-26T07:46:23;13.85;;;5.97;;
20559;SDS011;10438;51.454;6.718;2023-06-26T07:48:48;16.63;;;6.43;;
20559;SDS011;10438;51.454;6.718;2023-06-26T07:51:14;17.38;;;6.00;;
20559;SDS011;10438;51.454;6.718;2023-06-26T07:53:40;16.13;;;5.65;;
20559;SDS011;10438;51.454;6.718;2023-06-26T07:56:06;19.38;;;5.53;;
20559;SDS011;10438;51.454;6.718;2023-06-26T07:58:31;16.42;;;5.47;;
20559;SDS011;10438;51.454;6.718;2023-06-26T08:00:57;14.38;;;6.10;;
20559;SDS011;10438;51.454;6.718;2023-06-26T08:03:22;17.08;;;5.88;;
20559;SDS011;10438;51.454;6.718;2023-06-26T08:05:48;13.43;;;5.05;;
20559;SDS011;10438;51.454;6.718;2023-06-26T08:08:14;17.45;;;5.68;;
20559;SDS011;10438;51.454;6.718;2023-06-26T08:10:39;17.27;;;4.78;;
20559;SDS011;10438;51.454;6.718;2023-06-26T08:13:05;13.88;;;4.57;;
20559;SDS011;10438;51.454;6.718;2023-06-26T08:15:30;13.45;;;4.72;;
20559;SDS011;10438;51.454;6.718;2023-06-26T08:17:56;14.70;;;4.28;;
20559;SDS011;10438;51.454;6.718;2023-06-26T08:20:21;16.63;;;4.03;;
20559;SDS011;10438;51.454;6.718;2023-06-26T08:22:47;11.48;;;3.90;;
20559;SDS011;10438;51.454;6.718;2023-06-26T08:25:15;13.90;;;4.35;;
20559;SDS011;10438;51.454;6.718;2023-06-26T08:27:41;12.00;;;4.15;;
20559;SDS011;10438;51.454;6.718;2023-06-26T08:30:06;16.90;;;4.78;;
20559;SDS011;10438;51.454;6.718;2023-06-26T08:32:32;12.00;;;4.15;;
20559;SDS011;10438;51.454;6.718;2023-06-26T08:34:58;13.35;;;4.38;;
20559;SDS011;10438;51.454;6.718;2023-06-26T08:37:23;12.73;;;4.30;;
20559;SDS011;10438;51.454;6.718;2023-06-26T08:39:49;11.68;;;4.10;;
20559;SDS011;10438;51.454;6.718;2023-06-26T08:42:14;13.80;;;4.18;;
20559;SDS011;10438;51.454;6.718;2023-06-26T08:44:40;15.55;;;4.32;;
20559;SDS011;10438;51.454;6.718;2023-06-26T08:47:07;13.23;;;4.32;;
20559;SDS011;10438;51.454;6.718;2023-06-26T08:50:00;13.32;;;4.35;;
20559;SDS011;10438;51.454;6.718;2023-06-26T08:52:28;11.57;;;4.07;;
20559;SDS011;10438;51.454;6.718;2023-06-26T08:54:59;18.35;;;4.55;;
20559;SDS011;10438;51.454;6.718;2023-06-26T08:57:26;14.48;;;4.28;;
20559;SDS011;10438;51.454;6.718;2023-06-26T08:59:55;15.15;;;4.60;;
20559;SDS011;10438;51.454;6.718;2023-06-26T09:02:20;14.45;;;5.15;;
20559;SDS011;10438;51.454;6.718;2023-06-26T09:04:47;13.35;;;4.47;;
20559;SDS011;10438;51.454;6.718;2023-06-26T09:07:13;15.65;;;4.57;;
20559;SDS011;10438;51.454;6.718;2023-06-26T09:09:38;16.60;;;4.38;;
20559;SDS011;10438;51.454;6.718;2023-06-26T09:12:04;15.95;;;4.72;;
20559;SDS011;10438;51.454;6.718;2023-06-26T09:14:30;18.88;;;4.22;;
20559;SDS011;10438;51.454;6.718;2023-06-26T09:16:55;11.55;;;4.40;;
20559;SDS011;10438;51.454;6.718;2023-06-26T09:19:21;13.60;;;4.55;;
20559;SDS011;10438;51.454;6.718;2023-06-26T09:21:48;15.85;;;4.50;;
20559;SDS011;10438;51.454;6.718;2023-06-26T09:24:15;10.30;;;3.67;;
20559;SDS011;10438;51.454;6.718;2023-06-26T09:26:41;10.23;;;3.60;;
20559;SDS011;10438;51.454;6.718;2023-06-26T09:29:08;12.77;;;3.50;;
20559;SDS011;10438;51.454;6.718;2023-06-26T09:31:38;11.20;;;3.70;;
20559;SDS011;10438;51.454;6.718;2023-06-26T09:34:04;11.95;;;3.75;;
20559;SDS011;10438;51.454;6.718;2023-06-26T09:36:30;13.45;;;4.18;;
20559;SDS011;10438;51.454;6.718;2023-06-26T09:38:58;11.43;;;3.58;;
20559;SDS011;10438;51.454;6.718;2023-06-26T09:41:36;12.00;;;3.67;;
20559;SDS011;10438;51.454;6.718;2023-06-26T09:44:03;9.18;;;2.88;;
20559;SDS011;10438;51.454;6.718;2023-06-26T09:46:30;12.02;;;3.53;;
20559;SDS011;10438;51.454;6.718;2023-06-26T09:49:04;8.95;;;3.30;;
20559;SDS011;10438;51.454;6.718;2023-06-26T09:51:31;13.02;;;3.53;;
20559;SDS011;10438;51.454;6.718;2023-06-26T09:54:02;9.00;;;3.28;;
20559;SDS011;10438;51.454;6.718;2023-06-26T09:56:29;9.15;;;2.92;;
20559;SDS011;10438;51.454;6.718;2023-06-26T09:58:55;8.93;;;3.22;;
20559;SDS011;10438;51.454;6.718;2023-06-26T10:01:25;8.05;;;2.92;;
20559;SDS011;10438;51.454;6.718;2023-06-26T10:03:51;8.95;;;3.00;;
20559;SDS011;10438;51.454;6.718;2023-06-26T10:06:18;9.75;;;3.33;;
20559;SDS011;10438;51.454;6.718;2023-06-26T10:08:54;10.85;;;3.10;;
20559;SDS011;10438;51.454;6.718;2023-06-26T10:11:21;12.90;;;3.40;;
20559;SDS011;10438;51.454;6.718;2023-06-26T10:13:50;10.15;;;3.45;;
20559;SDS011;10438;51.454;6.718;2023-06-26T10:16:29;10.65;;;2.88;;
20559;SDS011;10438;51.454;6.718;2023-06-26T10:18:58;9.73;;;3.58;;
20559;SDS011;10438;51.454;6.718;2023-06-26T10:21:27;7.50;;;3.22;;
20559;SDS011;10438;51.454;6.718;2023-06-26T10:23:54;9.55;;;2.80;;
20559;SDS011;10438;51.454;6.718;2023-06-26T10:26:21;8.55;;;3.13;;
20559;SDS011;10438;51.454;6.718;2023-06-26T10:28:49;11.65;;;3.53;;
20559;SDS011;10438;51.454;6.718;2023-06-26T10:31:17;6.68;;;3.10;;
20559;SDS011;10438;51.454;6.718;2023-06-26T10:33:46;7.90;;;3.05;;
20559;SDS011;10438;51.454;6.718;2023-06-26T10:36:13;10.75;;;2.72;;
20559;SDS011;10438;51.454;6.718;2023-06-26T10:38:47;9.30;;;3.47;;
20559;SDS011;10438;51.454;6.718;2023-06-26T10:41:14;7.45;;;3.33;;
20559;SDS011;10438;51.454;6.718;2023-06-26T10:43:40;15.80;;;4.50;;
20559;SDS011;10438;51.454;6.718;2023-06-26T10:46:09;9.85;;;3.20;;
20559;SDS011;10438;51.454;6.718;2023-06-26T10:48:44;6.25;;;2.17;;
20559;SDS011;10438;51.454;6.718;2023-06-26T10:51:21;5.45;;;2.20;;
20559;SDS011;10438;51.454;6.718;2023-06-26T10:53:49;6.53;;;2.20;;
20559;SDS011;10438;51.454;6.718;2023-06-26T10:56:19;6.78;;;2.38;;
20559;SDS011;10438;51.454;6.718;2023-06-26T10:58:45;7.25;;;1.83;;
20559;SDS011;10438;51.454;6.718;2023-06-26T11:03:46;3.45;;;1.60;;
20559;SDS011;10438;51.454;6.718;2023-06-26T11:06:20;9.35;;;1.77;;
20559;SDS011;10438;51.454;6.718;2023-06-26T11:08:52;7.05;;;1.88;;
20559;SDS011;10438;51.454;6.718;2023-06-26T11:11:54;10.77;;;2.03;;
20559;SDS011;10438;51.454;6.718;2023-06-26T11:14:19;4.25;;;1.50;;
20559;SDS011;10438;51.454;6.718;2023-06-26T11:16:46;4.20;;;1.58;;
20559;SDS011;10438;51.454;6.718;2023-06-26T11:19:12;5.47;;;1.50;;
20559;SDS011;10438;51.454;6.718;2023-06-26T11:21:39;10.50;;;2.22;;
20559;SDS011;10438;51.454;6.718;2023-06-26T11:24:08;6.78;;;1.60;;
20559;SDS011;10438;51.454;6.718;2023-06-26T11:26:38;5.97;;;1.70;;
20559;SDS011;10438;51.454;6.718;2023-06-26T11:29:05;4.90;;;1.70;;
20559;SDS011;10438;51.454;6.718;2023-06-26T11:31:31;4.70;;;1.55;;
20559;SDS011;10438;51.454;6.718;2023-06-26T11:34:08;5.72;;;1.20;;
20559;SDS011;10438;51.454;6.718;2023-06-26T11:36:38;3.10;;;1.20;;
20559;SDS011;10438;51.454;6.718;2023-06-26T11:39:07;3.85;;;1.38;;
20559;SDS011;10438;51.454;6.718;2023-06-26T11:41:33;3.35;;;1.30;;
20559;SDS011;10438;51.454;6.718;2023-06-26T11:44:03;8.65;;;1.13;;
20559;SDS011;10438;51.454;6.718;2023-06-26T11:46:35;7.68;;;1.58;;
20559;SDS011;10438;51.454;6.718;2023-06-26T11:49:05;3.58;;;1.35;;
20559;SDS011;10438;51.454;6.718;2023-06-26T11:51:31;8.65;;;1.63;;
20559;SDS011;10438;51.454;6.718;2023-06-26T11:54:00;8.57;;;1.60;;
20559;SDS011;10438;51.454;6.718;2023-06-26T11:56:28;6.50;;;1.17;;
20559;SDS011;10438;51.454;6.718;2023-06-26T12:01:34;4.55;;;1.30;;
20559;SDS011;10438;51.454;6.718;2023-06-26T12:04:12;4.65;;;1.20;;
20559;SDS011;10438;51.454;6.718;2023-06-26T12:06:42;10.07;;;1.95;;
20559;SDS011;10438;51.454;6.718;2023-06-26T12:09:13;3.30;;;0.82;;
20559;SDS011;10438;51.454;6.718;2023-06-26T12:11:40;7.10;;;1.30;;
20559;SDS011;10438;51.454;6.718;2023-06-26T12:14:07;3.15;;;0.80;;
20559;SDS011;10438;51.454;6.718;2023-06-26T12:16:33;2.90;;;1.02;;
20559;SDS011;10438;51.454;6.718;2023-06-26T12:19:00;4.55;;;1.13;;
20559;SDS011;10438;51.454;6.718;2023-06-26T12:24:10;4.75;;;1.00;;
20559;SDS011;10438;51.454;6.718;2023-06-26T12:26:41;6.60;;;1.20;;
20559;SDS011;10438;51.454;6.718;2023-06-26T12:29:14;4.70;;;1.10;;
20559;SDS011;10438;51.454;6.718;2023-06-26T12:31:43;3.72;;;1.13;;
20559;SDS011;10438;51.454;6.718;2023-06-26T12:34:10;6.00;;;1.38;;
20559;SDS011;10438;51.454;6.718;2023-06-26T12:36:50;7.00;;;1.30;;
20559;SDS011;10438;51.454;6.718;2023-06-26T12:39:17;7.25;;;1.50;;
20559;SDS011;10438;51.454;6.718;2023-06-26T12:42:01;11.13;;;1.10;;
20559;SDS011;10438;51.454;6.718;2023-06-26T12:44:28;5.13;;;1.38;;
20559;SDS011;10438;51.454;6.718;2023-06-26T12:46:56;7.15;;;1.00;;
20559;SDS011;10438;51.454;6.718;2023-06-26T12:49:29;4.35;;;1.30;;
20559;SDS011;10438;51.454;6.718;2023-06-26T12:51:55;3.05;;;1.10;;
20559;SDS011;10438;51.454;6.718;2023-06-26T12:54:21;6.07;;;1.10;;
20559;SDS011;10438;51.454;6.718;2023-06-26T12:56:46;5.05;;;1.10;;
20559;SDS011;10438;51.454;6.718;2023-06-26T12:59:12;7.18;;;1.13;;
20559;SDS011;10438;51.454;6.718;2023-06-26T13:01:38;11.95;;;1.20;;
20559;SDS011;10438;51.454;6.718;2023-06-26T13:04:05;5.10;;;1.40;;
20559;SDS011;10438;51.454;6.718;2023-06-26T13:06:30;3.67;;;1.00;;
20559;SDS011;10438;51.454;6.718;2023-06-26T13:08:57;9.52;;;1.55;;
20559;SDS011;10438;51.454;6.718;2023-06-26T13:11:23;3.97;;;1.27;;
20559;SDS011;10438;51.454;6.718;2023-06-26T13:13:48;2.97;;;1.20;;
20559;SDS011;10438;51.454;6.718;2023-06-26T13:16:14;5.38;;;1.30;;
20559;SDS011;10438;51.454;6.718;2023-06-26T13:18:41;5.95;;;1.45;;
20559;SDS011;10438;51.454;6.718;2023-06-26T13:21:06;4.93;;;1.30;;
20559;SDS011;10438;51.454;6.718;2023-06-26T13:23:32;5.22;;;1.58;;
20559;SDS011;10438;51.454;6.718;2023-06-26T13:25:57;4.45;;;1.20;;
20559;SDS011;10438;51.454;6.718;2023-06-26T13:28:23;4.35;;;1.30;;
20559;SDS011;10438;51.454;6.718;2023-06-26T13:30:48;4.50;;;1.30;;
20559;SDS011;10438;51.454;6.718;2023-06-26T13:33:14;4.20;;;1.20;;
20559;SDS011;10438;51.454;6.718;2023-06-26T13:35:40;6.43;;;1.40;;
20559;SDS011;10438;51.454;6.718;2023-06-26T13:38:06;5.15;;;1.13;;
20559;SDS011;10438;51.454;6.718;2023-06-26T13:40:31;3.15;;;1.10;;
20559;SDS011;10438;51.454;6.718;2023-06-26T13:42:57;3.33;;;1.10;;
20559;SDS011;10438;51.454;6.718;2023-06-26T13:45:22;4.75;;;0.98;;
20559;SDS011;10438;51.454;6.718;2023-06-26T13:47:50;6.75;;;2.00;;
20559;SDS011;10438;51.454;6.718;2023-06-26T13:50:15;5.20;;;1.45;;
20559;SDS011;10438;51.454;6.718;2023-06-26T13:52:41;6.88;;;1.35;;
20559;SDS011;10438;51.454;6.718;2023-06-26T13:55:06;2.92;;;1.10;;
20559;SDS011;10438;51.454;6.718;2023-06-26T13:57:32;3.33;;;1.13;;
20559;SDS011;10438;51.454;6.718;2023-06-26T13:59:58;4.90;;;1.60;;
20559;SDS011;10438;51.454;6.718;2023-06-26T14:02:24;3.90;;;1.60;;
20559;SDS011;10438;51.454;6.718;2023-06-26T14:04:49;6.13;;;1.17;;
20559;SDS011;10438;51.454;6.718;2023-06-26T14:07:15;5.35;;;1.30;;
20559;SDS011;10438;51.454;6.718;2023-06-26T14:09:40;6.95;;;1.40;;
20559;SDS011;10438;51.454;6.718;2023-06-26T14:12:07;9.70;;;1.42;;
20559;SDS011;10438;51.454;6.718;2023-06-26T14:14:33;5.80;;;1.30;;
20559;SDS011;10438;51.454;6.718;2023-06-26T14:16:58;3.55;;;1.27;;
20559;SDS011;10438;51.454;6.718;2023-06-26T14:19:24;6.38;;;1.63;;
20559;SDS011;10438;51.454;6.718;2023-06-26T14:21:50;3.83;;;1.25;;
20559;SDS011;10438;51.454;6.718;2023-06-26T14:24:16;6.15;;;1.27;;
20559;SDS011;10438;51.454;6.718;2023-06-26T14:26:41;3.53;;;1.13;;
20559;SDS011;10438;51.454;6.718;2023-06-26T14:29:07;3.15;;;1.17;;
20559;SDS011;10438;51.454;6.718;2023-06-26T14:31:33;3.67;;;1.10;;
20559;SDS011;10438;51.454;6.718;2023-06-26T14:33:58;2.63;;;1.10;;
20559;SDS011;10438;51.454;6.718;2023-06-26T14:36:24;5.55;;;1.30;;
20559;SDS011;10438;51.454;6.718;2023-06-26T14:38:51;4.75;;;1.20;;
20559;SDS011;10438;51.454;6.718;2023-06-26T14:41:17;4.57;;;1.30;;
20559;SDS011;10438;51.454;6.718;2023-06-26T14:43:42;9.00;;;1.13;;
20559;SDS011;10438;51.454;6.718;2023-06-26T14:46:08;4.95;;;0.93;;
20559;SDS011;10438;51.454;6.718;2023-06-26T14:48:33;2.97;;;1.17;;